sensor_id;sensor_type;location;lat;lon;timestamp;P1;durP1;ratioP1;P2;durP2;ratioP2
59042;SDS011;44826;51.596;5.624;2023-04-15T00:00:37;5.82;;;3.38;;
59042;SDS011;44826;51.596;5.624;2023-04-15T00:03:03;7.70;;;3.53;;
59042;SDS011;44826;51.596;5.624;2023-04-15T00:05:32;6.30;;;3.58;;
59042;SDS011;44826;51.596;5.624;2023-04-15T00:07:57;7.97;;;3.63;;
59042;SDS011;44826;51.596;5.624;2023-04-15T00:10:23;5.90;;;3.63;;
59042;SDS011;44826;51.596;5.624;2023-04-15T00:12:49;7.50;;;3.42;;
59042;SDS011;44826;51.596;5.624;2023-04-15T00:15:14;6.75;;;3.67;;
59042;SDS011;44826;51.596;5.624;2023-04-15T00:17:40;5.95;;;3.97;;
59042;SDS011;44826;51.596;5.624;2023-04-15T00:20:05;7.50;;;3.60;;
59042;SDS011;44826;51.596;5.624;2023-04-15T00:22:31;6.88;;;3.85;;
59042;SDS011;44826;51.596;5.624;2023-04-15T00:24:57;6.20;;;3.70;;
59042;SDS011;44826;51.596;5.624;2023-04-15T00:27:22;8.00;;;3.67;;
59042;SDS011;44826;51.596;5.624;2023-04-15T00:29:47;7.90;;;3.97;;
59042;SDS011;44826;51.596;5.624;2023-04-15T00:32:12;5.93;;;3.78;;
59042;SDS011;44826;51.596;5.624;2023-04-15T00:34:38;5.97;;;3.78;;
59042;SDS011;44826;51.596;5.624;2023-04-15T00:37:03;7.25;;;4.20;;
59042;SDS011;44826;51.596;5.624;2023-04-15T00:39:29;6.88;;;3.92;;
59042;SDS011;44826;51.596;5.624;2023-04-15T00:41:54;6.00;;;3.70;;
59042;SDS011;44826;51.596;5.624;2023-04-15T00:44:21;6.78;;;3.85;;
59042;SDS011;44826;51.596;5.624;2023-04-15T00:46:46;6.57;;;3.92;;
59042;SDS011;44826;51.596;5.624;2023-04-15T00:49:13;6.60;;;3.72;;
59042;SDS011;44826;51.596;5.624;2023-04-15T00:51:38;7.57;;;4.15;;
59042;SDS011;44826;51.596;5.624;2023-04-15T00:54:04;5.35;;;3.85;;
59042;SDS011;44826;51.596;5.624;2023-04-15T00:56:30;6.43;;;4.20;;
59042;SDS011;44826;51.596;5.624;2023-04-15T00:58:59;6.50;;;3.95;;
59042;SDS011;44826;51.596;5.624;2023-04-15T01:01:26;7.03;;;4.00;;
59042;SDS011;44826;51.596;5.624;2023-04-15T01:03:52;5.60;;;3.92;;
59042;SDS011;44826;51.596;5.624;2023-04-15T01:06:20;8.00;;;3.92;;
59042;SDS011;44826;51.596;5.624;2023-04-15T01:08:45;7.90;;;4.32;;
59042;SDS011;44826;51.596;5.624;2023-04-15T01:11:11;5.57;;;3.88;;
59042;SDS011;44826;51.596;5.624;2023-04-15T01:13:37;6.60;;;4.40;;
59042;SDS011;44826;51.596;5.624;2023-04-15T01:16:02;7.03;;;4.28;;
59042;SDS011;44826;51.596;5.624;2023-04-15T01:18:28;7.10;;;3.97;;
59042;SDS011;44826;51.596;5.624;2023-04-15T01:20:54;7.35;;;4.10;;
59042;SDS011;44826;51.596;5.624;2023-04-15T01:23:22;7.00;;;4.18;;
59042;SDS011;44826;51.596;5.624;2023-04-15T01:25:48;7.40;;;3.92;;
59042;SDS011;44826;51.596;5.624;2023-04-15T01:28:14;6.90;;;3.78;;
59042;SDS011;44826;51.596;5.624;2023-04-15T01:30:40;6.78;;;4.00;;
59042;SDS011;44826;51.596;5.624;2023-04-15T01:33:05;7.07;;;4.25;;
59042;SDS011;44826;51.596;5.624;2023-04-15T01:35:31;7.10;;;4.13;;
59042;SDS011;44826;51.596;5.624;2023-04-15T01:37:58;5.80;;;3.85;;
59042;SDS011;44826;51.596;5.624;2023-04-15T01:40:30;7.25;;;4.13;;
59042;SDS011;44826;51.596;5.624;2023-04-15T01:42:55;6.47;;;4.38;;
59042;SDS011;44826;51.596;5.624;2023-04-15T01:45:21;7.53;;;4.43;;
59042;SDS011;44826;51.596;5.624;2023-04-15T01:47:46;8.55;;;4.45;;
59042;SDS011;44826;51.596;5.624;2023-04-15T01:50:11;7.13;;;4.43;;
59042;SDS011;44826;51.596;5.624;2023-04-15T01:52:37;7.50;;;4.57;;
59042;SDS011;44826;51.596;5.624;2023-04-15T01:55:02;7.45;;;4.57;;
59042;SDS011;44826;51.596;5.624;2023-04-15T01:57:28;6.10;;;4.20;;
59042;SDS011;44826;51.596;5.624;2023-04-15T01:59:53;7.95;;;4.65;;
59042;SDS011;44826;51.596;5.624;2023-04-15T02:02:18;6.85;;;4.65;;
59042;SDS011;44826;51.596;5.624;2023-04-15T02:04:44;7.53;;;4.60;;
59042;SDS011;44826;51.596;5.624;2023-04-15T02:07:09;7.22;;;4.93;;
59042;SDS011;44826;51.596;5.624;2023-04-15T02:09:34;8.38;;;4.72;;
59042;SDS011;44826;51.596;5.624;2023-04-15T02:12:00;6.35;;;4.55;;
59042;SDS011;44826;51.596;5.624;2023-04-15T02:14:25;8.02;;;4.97;;
59042;SDS011;44826;51.596;5.624;2023-04-15T02:16:51;8.45;;;4.57;;
59042;SDS011;44826;51.596;5.624;2023-04-15T02:19:16;8.02;;;4.63;;
59042;SDS011;44826;51.596;5.624;2023-04-15T02:21:41;7.95;;;4.72;;
59042;SDS011;44826;51.596;5.624;2023-04-15T02:24:06;6.55;;;4.75;;
59042;SDS011;44826;51.596;5.624;2023-04-15T02:26:32;6.72;;;4.53;;
59042;SDS011;44826;51.596;5.624;2023-04-15T02:28:57;6.90;;;4.40;;
59042;SDS011;44826;51.596;5.624;2023-04-15T02:31:23;6.40;;;4.47;;
59042;SDS011;44826;51.596;5.624;2023-04-15T02:33:49;8.43;;;4.88;;
59042;SDS011;44826;51.596;5.624;2023-04-15T02:36:15;8.40;;;5.00;;
59042;SDS011;44826;51.596;5.624;2023-04-15T02:38:40;7.85;;;4.57;;
59042;SDS011;44826;51.596;5.624;2023-04-15T02:41:07;5.90;;;4.53;;
59042;SDS011;44826;51.596;5.624;2023-04-15T02:43:34;6.57;;;4.40;;
59042;SDS011;44826;51.596;5.624;2023-04-15T02:45:59;6.05;;;4.50;;
59042;SDS011;44826;51.596;5.624;2023-04-15T02:48:24;6.50;;;4.10;;
59042;SDS011;44826;51.596;5.624;2023-04-15T02:50:50;6.35;;;4.40;;
59042;SDS011;44826;51.596;5.624;2023-04-15T02:53:16;6.20;;;3.95;;
59042;SDS011;44826;51.596;5.624;2023-04-15T02:55:41;7.32;;;4.80;;
59042;SDS011;44826;51.596;5.624;2023-04-15T02:58:06;7.60;;;4.60;;
59042;SDS011;44826;51.596;5.624;2023-04-15T03:00:32;7.35;;;4.50;;
59042;SDS011;44826;51.596;5.624;2023-04-15T03:02:58;7.22;;;4.75;;
59042;SDS011;44826;51.596;5.624;2023-04-15T03:05:26;8.68;;;5.00;;
59042;SDS011;44826;51.596;5.624;2023-04-15T03:07:51;6.30;;;4.50;;
59042;SDS011;44826;51.596;5.624;2023-04-15T03:10:17;8.70;;;4.65;;
59042;SDS011;44826;51.596;5.624;2023-04-15T03:12:42;8.77;;;5.00;;
59042;SDS011;44826;51.596;5.624;2023-04-15T03:15:08;6.65;;;4.55;;
59042;SDS011;44826;51.596;5.624;2023-04-15T03:17:34;7.00;;;4.60;;
59042;SDS011;44826;51.596;5.624;2023-04-15T03:20:02;7.72;;;4.80;;
59042;SDS011;44826;51.596;5.624;2023-04-15T03:22:29;8.88;;;5.25;;
59042;SDS011;44826;51.596;5.624;2023-04-15T03:24:56;6.60;;;4.68;;
59042;SDS011;44826;51.596;5.624;2023-04-15T03:27:21;8.52;;;5.03;;
59042;SDS011;44826;51.596;5.624;2023-04-15T03:29:46;6.80;;;4.75;;
59042;SDS011;44826;51.596;5.624;2023-04-15T03:32:12;6.78;;;4.57;;
59042;SDS011;44826;51.596;5.624;2023-04-15T03:34:39;7.32;;;4.80;;
59042;SDS011;44826;51.596;5.624;2023-04-15T03:37:05;6.93;;;4.47;;
59042;SDS011;44826;51.596;5.624;2023-04-15T03:39:30;6.47;;;4.30;;
59042;SDS011;44826;51.596;5.624;2023-04-15T03:41:56;8.45;;;5.10;;
59042;SDS011;44826;51.596;5.624;2023-04-15T03:44:21;7.05;;;4.75;;
59042;SDS011;44826;51.596;5.624;2023-04-15T03:46:47;6.10;;;4.38;;
59042;SDS011;44826;51.596;5.624;2023-04-15T03:49:12;6.47;;;4.68;;
59042;SDS011;44826;51.596;5.624;2023-04-15T03:51:38;6.57;;;4.80;;
59042;SDS011;44826;51.596;5.624;2023-04-15T03:54:03;6.78;;;4.53;;
59042;SDS011;44826;51.596;5.624;2023-04-15T03:56:28;6.95;;;4.78;;
59042;SDS011;44826;51.596;5.624;2023-04-15T03:58:53;8.00;;;4.40;;
59042;SDS011;44826;51.596;5.624;2023-04-15T04:01:19;7.70;;;4.57;;
59042;SDS011;44826;51.596;5.624;2023-04-15T04:03:45;8.98;;;5.03;;
59042;SDS011;44826;51.596;5.624;2023-04-15T04:06:10;8.90;;;5.07;;
59042;SDS011;44826;51.596;5.624;2023-04-15T04:08:36;6.25;;;4.35;;
59042;SDS011;44826;51.596;5.624;2023-04-15T04:11:01;8.45;;;4.90;;
59042;SDS011;44826;51.596;5.624;2023-04-15T04:13:27;7.40;;;4.72;;
59042;SDS011;44826;51.596;5.624;2023-04-15T04:15:52;9.32;;;4.70;;
59042;SDS011;44826;51.596;5.624;2023-04-15T04:18:17;7.90;;;4.93;;
59042;SDS011;44826;51.596;5.624;2023-04-15T04:20:43;6.75;;;5.00;;
59042;SDS011;44826;51.596;5.624;2023-04-15T04:23:08;7.68;;;5.05;;
59042;SDS011;44826;51.596;5.624;2023-04-15T04:25:33;7.28;;;5.00;;
59042;SDS011;44826;51.596;5.624;2023-04-15T04:27:58;7.00;;;4.53;;
59042;SDS011;44826;51.596;5.624;2023-04-15T04:30:24;6.50;;;4.40;;
59042;SDS011;44826;51.596;5.624;2023-04-15T04:32:49;7.65;;;4.97;;
59042;SDS011;44826;51.596;5.624;2023-04-15T04:35:15;7.18;;;4.55;;
59042;SDS011;44826;51.596;5.624;2023-04-15T04:37:41;9.45;;;5.40;;
59042;SDS011;44826;51.596;5.624;2023-04-15T04:40:06;9.32;;;5.30;;
59042;SDS011;44826;51.596;5.624;2023-04-15T04:42:33;8.10;;;5.07;;
59042;SDS011;44826;51.596;5.624;2023-04-15T04:44:58;7.72;;;5.40;;
59042;SDS011;44826;51.596;5.624;2023-04-15T04:47:23;6.35;;;4.53;;
59042;SDS011;44826;51.596;5.624;2023-04-15T04:49:49;7.65;;;5.10;;
59042;SDS011;44826;51.596;5.624;2023-04-15T04:52:14;7.55;;;4.75;;
59042;SDS011;44826;51.596;5.624;2023-04-15T04:54:39;7.45;;;4.93;;
59042;SDS011;44826;51.596;5.624;2023-04-15T04:57:05;6.68;;;4.53;;
59042;SDS011;44826;51.596;5.624;2023-04-15T04:59:32;6.65;;;4.55;;
59042;SDS011;44826;51.596;5.624;2023-04-15T05:01:57;9.50;;;5.25;;
59042;SDS011;44826;51.596;5.624;2023-04-15T05:04:22;8.60;;;5.00;;
59042;SDS011;44826;51.596;5.624;2023-04-15T05:06:47;8.25;;;4.93;;
59042;SDS011;44826;51.596;5.624;2023-04-15T05:09:13;6.82;;;4.93;;
59042;SDS011;44826;51.596;5.624;2023-04-15T05:11:38;7.10;;;4.45;;
59042;SDS011;44826;51.596;5.624;2023-04-15T05:14:03;8.50;;;4.95;;
59042;SDS011;44826;51.596;5.624;2023-04-15T05:16:29;6.85;;;4.72;;
59042;SDS011;44826;51.596;5.624;2023-04-15T05:18:54;8.57;;;4.90;;
59042;SDS011;44826;51.596;5.624;2023-04-15T05:21:19;9.07;;;5.00;;
59042;SDS011;44826;51.596;5.624;2023-04-15T05:23:46;7.53;;;5.05;;
59042;SDS011;44826;51.596;5.624;2023-04-15T05:26:11;6.88;;;5.00;;
59042;SDS011;44826;51.596;5.624;2023-04-15T05:28:36;7.20;;;4.55;;
59042;SDS011;44826;51.596;5.624;2023-04-15T05:31:02;6.50;;;4.63;;
59042;SDS011;44826;51.596;5.624;2023-04-15T05:33:27;8.60;;;5.40;;
59042;SDS011;44826;51.596;5.624;2023-04-15T05:35:52;8.38;;;5.07;;
59042;SDS011;44826;51.596;5.624;2023-04-15T05:38:18;8.23;;;5.45;;
59042;SDS011;44826;51.596;5.624;2023-04-15T05:40:43;7.75;;;5.47;;
59042;SDS011;44826;51.596;5.624;2023-04-15T05:43:08;7.07;;;5.25;;
59042;SDS011;44826;51.596;5.624;2023-04-15T05:45:34;8.40;;;5.72;;
59042;SDS011;44826;51.596;5.624;2023-04-15T05:48:00;8.90;;;5.25;;
59042;SDS011;44826;51.596;5.624;2023-04-15T05:50:25;7.50;;;5.13;;
59042;SDS011;44826;51.596;5.624;2023-04-15T05:52:50;7.60;;;5.07;;
59042;SDS011;44826;51.596;5.624;2023-04-15T05:55:16;8.18;;;5.05;;
59042;SDS011;44826;51.596;5.624;2023-04-15T05:57:41;7.20;;;4.93;;
59042;SDS011;44826;51.596;5.624;2023-04-15T06:00:06;9.57;;;5.30;;
59042;SDS011;44826;51.596;5.624;2023-04-15T06:02:32;6.93;;;4.93;;
59042;SDS011;44826;51.596;5.624;2023-04-15T06:04:57;8.45;;;5.28;;
59042;SDS011;44826;51.596;5.624;2023-04-15T06:07:23;9.23;;;5.03;;
59042;SDS011;44826;51.596;5.624;2023-04-15T06:09:48;8.90;;;5.45;;
59042;SDS011;44826;51.596;5.624;2023-04-15T06:12:14;7.45;;;5.00;;
59042;SDS011;44826;51.596;5.624;2023-04-15T06:14:39;8.90;;;5.28;;
59042;SDS011;44826;51.596;5.624;2023-04-15T06:17:05;9.25;;;6.00;;
59042;SDS011;44826;51.596;5.624;2023-04-15T06:19:31;8.27;;;5.50;;
59042;SDS011;44826;51.596;5.624;2023-04-15T06:21:56;8.40;;;5.70;;
59042;SDS011;44826;51.596;5.624;2023-04-15T06:24:22;9.20;;;6.10;;
59042;SDS011;44826;51.596;5.624;2023-04-15T06:26:48;9.13;;;5.80;;
59042;SDS011;44826;51.596;5.624;2023-04-15T06:29:13;8.10;;;5.30;;
59042;SDS011;44826;51.596;5.624;2023-04-15T06:31:38;8.93;;;5.75;;
59042;SDS011;44826;51.596;5.624;2023-04-15T06:34:03;8.32;;;5.97;;
59042;SDS011;44826;51.596;5.624;2023-04-15T06:36:29;8.10;;;5.25;;
59042;SDS011;44826;51.596;5.624;2023-04-15T06:38:54;10.93;;;5.85;;
59042;SDS011;44826;51.596;5.624;2023-04-15T06:41:20;9.00;;;5.93;;
59042;SDS011;44826;51.596;5.624;2023-04-15T06:43:45;9.73;;;6.20;;
59042;SDS011;44826;51.596;5.624;2023-04-15T06:46:11;8.90;;;5.80;;
59042;SDS011;44826;51.596;5.624;2023-04-15T06:48:36;10.10;;;6.18;;
59042;SDS011;44826;51.596;5.624;2023-04-15T06:51:02;9.65;;;6.15;;
59042;SDS011;44826;51.596;5.624;2023-04-15T06:53:28;10.77;;;6.60;;
59042;SDS011;44826;51.596;5.624;2023-04-15T06:55:53;9.25;;;6.15;;
59042;SDS011;44826;51.596;5.624;2023-04-15T06:58:18;10.68;;;6.63;;
59042;SDS011;44826;51.596;5.624;2023-04-15T07:00:44;8.93;;;6.57;;
59042;SDS011;44826;51.596;5.624;2023-04-15T07:03:10;11.02;;;6.65;;
59042;SDS011;44826;51.596;5.624;2023-04-15T07:05:37;10.32;;;6.18;;
59042;SDS011;44826;51.596;5.624;2023-04-15T07:08:03;9.15;;;6.43;;
59042;SDS011;44826;51.596;5.624;2023-04-15T07:10:28;9.30;;;6.38;;
59042;SDS011;44826;51.596;5.624;2023-04-15T07:12:54;10.38;;;6.60;;
59042;SDS011;44826;51.596;5.624;2023-04-15T07:15:19;9.35;;;6.70;;
59042;SDS011;44826;51.596;5.624;2023-04-15T07:17:44;9.68;;;6.57;;
59042;SDS011;44826;51.596;5.624;2023-04-15T07:20:10;10.43;;;6.60;;
59042;SDS011;44826;51.596;5.624;2023-04-15T07:22:36;9.75;;;6.53;;
59042;SDS011;44826;51.596;5.624;2023-04-15T07:25:02;10.38;;;6.97;;
59042;SDS011;44826;51.596;5.624;2023-04-15T07:27:27;12.75;;;7.82;;
59042;SDS011;44826;51.596;5.624;2023-04-15T07:29:53;9.93;;;6.68;;
59042;SDS011;44826;51.596;5.624;2023-04-15T07:32:18;11.52;;;7.07;;
59042;SDS011;44826;51.596;5.624;2023-04-15T07:34:43;9.27;;;6.13;;
59042;SDS011;44826;51.596;5.624;2023-04-15T07:37:09;10.15;;;6.43;;
59042;SDS011;44826;51.596;5.624;2023-04-15T07:39:34;8.95;;;6.20;;
59042;SDS011;44826;51.596;5.624;2023-04-15T07:42:00;11.52;;;7.07;;
59042;SDS011;44826;51.596;5.624;2023-04-15T07:44:26;11.52;;;7.03;;
59042;SDS011;44826;51.596;5.624;2023-04-15T07:46:51;10.60;;;7.00;;
59042;SDS011;44826;51.596;5.624;2023-04-15T07:49:16;11.68;;;7.45;;
59042;SDS011;44826;51.596;5.624;2023-04-15T07:51:43;11.32;;;7.60;;
59042;SDS011;44826;51.596;5.624;2023-04-15T07:54:08;11.40;;;7.70;;
59042;SDS011;44826;51.596;5.624;2023-04-15T07:56:34;10.45;;;7.00;;
59042;SDS011;44826;51.596;5.624;2023-04-15T07:58:59;9.90;;;6.53;;
59042;SDS011;44826;51.596;5.624;2023-04-15T08:01:26;8.68;;;5.82;;
59042;SDS011;44826;51.596;5.624;2023-04-15T08:03:51;9.40;;;5.85;;
59042;SDS011;44826;51.596;5.624;2023-04-15T08:06:17;8.98;;;6.00;;
59042;SDS011;44826;51.596;5.624;2023-04-15T08:08:42;7.68;;;4.85;;
59042;SDS011;44826;51.596;5.624;2023-04-15T08:11:08;7.28;;;4.60;;
59042;SDS011;44826;51.596;5.624;2023-04-15T08:13:33;8.32;;;5.07;;
59042;SDS011;44826;51.596;5.624;2023-04-15T08:16:12;8.05;;;4.72;;
59042;SDS011;44826;51.596;5.624;2023-04-15T08:18:40;8.18;;;5.20;;
59042;SDS011;44826;51.596;5.624;2023-04-15T08:21:05;6.85;;;4.75;;
59042;SDS011;44826;51.596;5.624;2023-04-15T08:23:31;6.13;;;4.13;;
59042;SDS011;44826;51.596;5.624;2023-04-15T08:25:57;7.95;;;4.25;;
59042;SDS011;44826;51.596;5.624;2023-04-15T08:28:22;6.20;;;4.22;;
59042;SDS011;44826;51.596;5.624;2023-04-15T08:30:48;7.22;;;4.15;;
59042;SDS011;44826;51.596;5.624;2023-04-15T08:33:13;6.72;;;4.28;;
59042;SDS011;44826;51.596;5.624;2023-04-15T08:35:38;6.28;;;4.20;;
59042;SDS011;44826;51.596;5.624;2023-04-15T08:38:03;6.95;;;4.30;;
59042;SDS011;44826;51.596;5.624;2023-04-15T08:40:30;6.53;;;4.10;;
59042;SDS011;44826;51.596;5.624;2023-04-15T08:43:09;5.85;;;4.15;;
59042;SDS011;44826;51.596;5.624;2023-04-15T08:45:41;6.80;;;4.70;;
59042;SDS011;44826;51.596;5.624;2023-04-15T08:48:09;6.35;;;4.30;;
59042;SDS011;44826;51.596;5.624;2023-04-15T08:50:40;8.10;;;4.47;;
59042;SDS011;44826;51.596;5.624;2023-04-15T08:53:06;6.57;;;4.20;;
59042;SDS011;44826;51.596;5.624;2023-04-15T08:55:32;7.68;;;4.60;;
59042;SDS011;44826;51.596;5.624;2023-04-15T08:58:00;6.00;;;4.35;;
59042;SDS011;44826;51.596;5.624;2023-04-15T09:00:27;10.68;;;4.97;;
59042;SDS011;44826;51.596;5.624;2023-04-15T09:02:53;37.42;;;7.15;;
59042;SDS011;44826;51.596;5.624;2023-04-15T09:05:20;48.22;;;9.40;;
59042;SDS011;44826;51.596;5.624;2023-04-15T09:07:46;18.58;;;6.72;;
59042;SDS011;44826;51.596;5.624;2023-04-15T09:10:12;21.42;;;6.80;;
59042;SDS011;44826;51.596;5.624;2023-04-15T09:12:37;12.77;;;5.15;;
59042;SDS011;44826;51.596;5.624;2023-04-15T09:15:03;10.38;;;4.45;;
59042;SDS011;44826;51.596;5.624;2023-04-15T09:17:29;6.35;;;3.88;;
59042;SDS011;44826;51.596;5.624;2023-04-15T09:20:07;5.50;;;3.20;;
59042;SDS011;44826;51.596;5.624;2023-04-15T09:22:33;6.90;;;3.97;;
59042;SDS011;44826;51.596;5.624;2023-04-15T09:24:59;7.15;;;4.00;;
59042;SDS011;44826;51.596;5.624;2023-04-15T09:27:25;5.47;;;3.30;;
59042;SDS011;44826;51.596;5.624;2023-04-15T09:29:50;5.07;;;3.38;;
59042;SDS011;44826;51.596;5.624;2023-04-15T09:32:18;5.40;;;3.40;;
59042;SDS011;44826;51.596;5.624;2023-04-15T09:34:45;6.45;;;4.00;;
59042;SDS011;44826;51.596;5.624;2023-04-15T09:37:10;5.22;;;3.50;;
59042;SDS011;44826;51.596;5.624;2023-04-15T09:40:11;7.10;;;4.00;;
59042;SDS011;44826;51.596;5.624;2023-04-15T09:42:29;5.38;;;4.00;;
59042;SDS011;44826;51.596;5.624;2023-04-15T09:45:06;5.78;;;3.53;;
59042;SDS011;44826;51.596;5.624;2023-04-15T09:47:32;5.70;;;3.90;;
59042;SDS011;44826;51.596;5.624;2023-04-15T09:49:58;5.30;;;3.50;;
59042;SDS011;44826;51.596;5.624;2023-04-15T09:52:24;6.07;;;3.90;;
59042;SDS011;44826;51.596;5.624;2023-04-15T09:54:51;6.38;;;3.83;;
59042;SDS011;44826;51.596;5.624;2023-04-15T09:57:18;7.00;;;3.90;;
59042;SDS011;44826;51.596;5.624;2023-04-15T09:59:43;5.55;;;3.63;;
59042;SDS011;44826;51.596;5.624;2023-04-15T10:02:09;5.97;;;3.67;;
59042;SDS011;44826;51.596;5.624;2023-04-15T10:04:38;4.78;;;3.10;;
59042;SDS011;44826;51.596;5.624;2023-04-15T10:07:05;5.72;;;3.00;;
59042;SDS011;44826;51.596;5.624;2023-04-15T10:09:34;4.13;;;2.97;;
59042;SDS011;44826;51.596;5.624;2023-04-15T10:12:01;5.35;;;3.20;;
59042;SDS011;44826;51.596;5.624;2023-04-15T10:14:29;5.10;;;3.22;;
59042;SDS011;44826;51.596;5.624;2023-04-15T10:16:58;5.00;;;2.97;;
59042;SDS011;44826;51.596;5.624;2023-04-15T10:19:25;5.85;;;2.80;;
59042;SDS011;44826;51.596;5.624;2023-04-15T10:21:55;3.40;;;2.17;;
59042;SDS011;44826;51.596;5.624;2023-04-15T10:24:20;3.55;;;1.83;;
59042;SDS011;44826;51.596;5.624;2023-04-15T10:26:46;4.25;;;1.90;;
59042;SDS011;44826;51.596;5.624;2023-04-15T10:29:12;2.60;;;2.10;;
59042;SDS011;44826;51.596;5.624;2023-04-15T10:31:38;2.70;;;1.88;;
59042;SDS011;44826;51.596;5.624;2023-04-15T10:34:05;2.58;;;1.88;;
59042;SDS011;44826;51.596;5.624;2023-04-15T10:36:31;3.47;;;2.15;;
59042;SDS011;44826;51.596;5.624;2023-04-15T10:38:57;3.10;;;1.80;;
59042;SDS011;44826;51.596;5.624;2023-04-15T10:46:34;2.50;;;1.90;;
59042;SDS011;44826;51.596;5.624;2023-04-15T10:49:06;3.08;;;1.90;;
59042;SDS011;44826;51.596;5.624;2023-04-15T10:51:42;2.50;;;1.70;;
59042;SDS011;44826;51.596;5.624;2023-04-15T10:54:14;2.70;;;1.98;;
59042;SDS011;44826;51.596;5.624;2023-04-15T10:57:05;2.88;;;1.95;;
59042;SDS011;44826;51.596;5.624;2023-04-15T10:59:36;3.13;;;2.05;;
59042;SDS011;44826;51.596;5.624;2023-04-15T11:02:04;3.17;;;1.95;;
59042;SDS011;44826;51.596;5.624;2023-04-15T11:12:42;1.75;;;1.27;;
59042;SDS011;44826;51.596;5.624;2023-04-15T11:17:54;2.30;;;1.52;;
59042;SDS011;44826;51.596;5.624;2023-04-15T11:20:19;1.85;;;1.48;;
59042;SDS011;44826;51.596;5.624;2023-04-15T11:22:52;2.05;;;1.35;;
59042;SDS011;44826;51.596;5.624;2023-04-15T11:25:25;3.22;;;1.70;;
59042;SDS011;44826;51.596;5.624;2023-04-15T11:27:52;2.50;;;1.65;;
59042;SDS011;44826;51.596;5.624;2023-04-15T11:30:23;2.50;;;1.55;;
59042;SDS011;44826;51.596;5.624;2023-04-15T11:32:50;2.50;;;1.77;;
59042;SDS011;44826;51.596;5.624;2023-04-15T11:35:17;3.80;;;1.98;;
59042;SDS011;44826;51.596;5.624;2023-04-15T11:37:43;3.53;;;1.63;;
59042;SDS011;44826;51.596;5.624;2023-04-15T11:40:12;6.07;;;1.90;;
59042;SDS011;44826;51.596;5.624;2023-04-15T11:42:39;5.15;;;2.10;;
59042;SDS011;44826;51.596;5.624;2023-04-15T11:45:05;2.40;;;1.95;;
59042;SDS011;44826;51.596;5.624;2023-04-15T11:47:33;2.63;;;1.90;;
59042;SDS011;44826;51.596;5.624;2023-04-15T11:50:12;2.83;;;1.83;;
59042;SDS011;44826;51.596;5.624;2023-04-15T11:52:52;3.67;;;2.10;;
59042;SDS011;44826;51.596;5.624;2023-04-15T11:55:18;2.88;;;1.77;;
59042;SDS011;44826;51.596;5.624;2023-04-15T11:57:43;1.95;;;1.50;;
59042;SDS011;44826;51.596;5.624;2023-04-15T12:00:09;2.50;;;1.70;;
59042;SDS011;44826;51.596;5.624;2023-04-15T12:02:37;3.42;;;1.95;;
59042;SDS011;44826;51.596;5.624;2023-04-15T12:05:03;3.67;;;1.88;;
59042;SDS011;44826;51.596;5.624;2023-04-15T12:07:29;2.60;;;1.70;;
59042;SDS011;44826;51.596;5.624;2023-04-15T12:09:55;3.17;;;2.00;;
59042;SDS011;44826;51.596;5.624;2023-04-15T12:12:25;3.20;;;2.08;;
59042;SDS011;44826;51.596;5.624;2023-04-15T12:14:51;3.55;;;1.92;;
59042;SDS011;44826;51.596;5.624;2023-04-15T12:17:16;3.40;;;2.10;;
59042;SDS011;44826;51.596;5.624;2023-04-15T12:19:42;3.53;;;2.28;;
59042;SDS011;44826;51.596;5.624;2023-04-15T12:22:10;2.90;;;2.22;;
59042;SDS011;44826;51.596;5.624;2023-04-15T12:24:36;3.53;;;2.28;;
59042;SDS011;44826;51.596;5.624;2023-04-15T12:27:12;3.42;;;2.10;;
59042;SDS011;44826;51.596;5.624;2023-04-15T12:29:39;3.55;;;2.00;;
59042;SDS011;44826;51.596;5.624;2023-04-15T12:34:43;3.97;;;2.20;;
59042;SDS011;44826;51.596;5.624;2023-04-15T12:37:14;2.47;;;1.90;;
59042;SDS011;44826;51.596;5.624;2023-04-15T12:39:40;3.25;;;2.20;;
59042;SDS011;44826;51.596;5.624;2023-04-15T12:42:07;4.78;;;2.15;;
59042;SDS011;44826;51.596;5.624;2023-04-15T12:44:34;7.18;;;2.33;;
59042;SDS011;44826;51.596;5.624;2023-04-15T12:47:00;3.55;;;2.05;;
59042;SDS011;44826;51.596;5.624;2023-04-15T12:49:26;4.93;;;1.75;;
59042;SDS011;44826;51.596;5.624;2023-04-15T12:51:52;5.03;;;2.30;;
59042;SDS011;44826;51.596;5.624;2023-04-15T12:54:19;3.47;;;2.00;;
59042;SDS011;44826;51.596;5.624;2023-04-15T12:56:46;2.65;;;2.00;;
59042;SDS011;44826;51.596;5.624;2023-04-15T12:59:13;3.70;;;2.17;;
59042;SDS011;44826;51.596;5.624;2023-04-15T13:01:40;2.63;;;1.95;;
59042;SDS011;44826;51.596;5.624;2023-04-15T13:04:06;3.95;;;2.05;;
59042;SDS011;44826;51.596;5.624;2023-04-15T13:06:31;4.28;;;1.88;;
59042;SDS011;44826;51.596;5.624;2023-04-15T13:09:00;2.42;;;1.83;;
59042;SDS011;44826;51.596;5.624;2023-04-15T13:11:26;3.40;;;1.52;;
59042;SDS011;44826;51.596;5.624;2023-04-15T13:13:54;6.95;;;2.20;;
59042;SDS011;44826;51.596;5.624;2023-04-15T13:16:20;4.85;;;1.90;;
59042;SDS011;44826;51.596;5.624;2023-04-15T13:18:47;3.08;;;1.83;;
59042;SDS011;44826;51.596;5.624;2023-04-15T13:21:12;3.90;;;1.98;;
59042;SDS011;44826;51.596;5.624;2023-04-15T13:23:38;2.53;;;1.60;;
59042;SDS011;44826;51.596;5.624;2023-04-15T13:26:03;2.47;;;1.88;;
59042;SDS011;44826;51.596;5.624;2023-04-15T13:28:28;3.78;;;1.70;;
59042;SDS011;44826;51.596;5.624;2023-04-15T13:30:54;4.28;;;1.70;;
59042;SDS011;44826;51.596;5.624;2023-04-15T13:33:19;3.63;;;1.80;;
59042;SDS011;44826;51.596;5.624;2023-04-15T13:35:45;3.67;;;1.83;;
59042;SDS011;44826;51.596;5.624;2023-04-15T13:38:10;4.53;;;1.90;;
59042;SDS011;44826;51.596;5.624;2023-04-15T13:40:35;2.55;;;1.58;;
59042;SDS011;44826;51.596;5.624;2023-04-15T13:43:00;2.00;;;1.70;;
59042;SDS011;44826;51.596;5.624;2023-04-15T13:45:27;2.28;;;1.40;;
59042;SDS011;44826;51.596;5.624;2023-04-15T13:47:52;2.58;;;1.70;;
59042;SDS011;44826;51.596;5.624;2023-04-15T13:50:20;2.55;;;1.50;;
59042;SDS011;44826;51.596;5.624;2023-04-15T13:52:45;3.53;;;1.50;;
59042;SDS011;44826;51.596;5.624;2023-04-15T13:55:10;4.07;;;1.73;;
59042;SDS011;44826;51.596;5.624;2023-04-15T13:57:35;2.60;;;1.40;;
59042;SDS011;44826;51.596;5.624;2023-04-15T14:00:01;1.85;;;1.08;;
59042;SDS011;44826;51.596;5.624;2023-04-15T14:02:28;3.90;;;1.23;;
59042;SDS011;44826;51.596;5.624;2023-04-15T14:04:53;1.90;;;1.17;;
59042;SDS011;44826;51.596;5.624;2023-04-15T14:07:19;2.20;;;1.30;;
59042;SDS011;44826;51.596;5.624;2023-04-15T14:09:44;1.83;;;1.00;;
59042;SDS011;44826;51.596;5.624;2023-04-15T14:12:10;5.28;;;1.05;;
59042;SDS011;44826;51.596;5.624;2023-04-15T14:14:35;1.45;;;0.90;;
59042;SDS011;44826;51.596;5.624;2023-04-15T14:17:01;1.60;;;1.00;;
59042;SDS011;44826;51.596;5.624;2023-04-15T14:19:28;1.52;;;0.88;;
59042;SDS011;44826;51.596;5.624;2023-04-15T14:21:54;1.35;;;1.00;;
59042;SDS011;44826;51.596;5.624;2023-04-15T14:24:20;2.53;;;1.30;;
59042;SDS011;44826;51.596;5.624;2023-04-15T14:26:45;2.83;;;1.10;;
59042;SDS011;44826;51.596;5.624;2023-04-15T14:29:10;1.85;;;1.13;;
59042;SDS011;44826;51.596;5.624;2023-04-15T14:31:36;2.13;;;1.20;;
59042;SDS011;44826;51.596;5.624;2023-04-15T14:34:01;2.22;;;1.17;;
59042;SDS011;44826;51.596;5.624;2023-04-15T14:36:27;2.13;;;1.00;;
59042;SDS011;44826;51.596;5.624;2023-04-15T14:38:52;2.17;;;1.00;;
59042;SDS011;44826;51.596;5.624;2023-04-15T14:41:17;1.40;;;1.10;;
59042;SDS011;44826;51.596;5.624;2023-04-15T14:43:43;4.03;;;1.50;;
59042;SDS011;44826;51.596;5.624;2023-04-15T14:46:09;2.03;;;1.10;;
59042;SDS011;44826;51.596;5.624;2023-04-15T14:48:35;2.70;;;1.27;;
59042;SDS011;44826;51.596;5.624;2023-04-15T14:51:00;3.13;;;1.10;;
59042;SDS011;44826;51.596;5.624;2023-04-15T14:53:26;1.60;;;1.00;;
59042;SDS011;44826;51.596;5.624;2023-04-15T14:55:51;1.52;;;1.00;;
59042;SDS011;44826;51.596;5.624;2023-04-15T14:58:16;1.50;;;0.90;;